sensor_id;sensor_type;location;lat;lon;timestamp;P1;durP1;ratioP1;P2;durP2;ratioP2
8584;SDS011;7180;52.742;11.420;2023-04-12T00:01:25;11.97;;;11.07;;
8584;SDS011;7180;52.742;11.420;2023-04-12T00:03:50;11.50;;;10.63;;
8584;SDS011;7180;52.742;11.420;2023-04-12T00:06:18;10.90;;;10.30;;
8584;SDS011;7180;52.742;11.420;2023-04-12T00:08:44;12.07;;;11.13;;
8584;SDS011;7180;52.742;11.420;2023-04-12T00:11:11;11.70;;;10.90;;
8584;SDS011;7180;52.742;11.420;2023-04-12T00:13:36;12.03;;;11.20;;
8584;SDS011;7180;52.742;11.420;2023-04-12T00:16:01;11.55;;;10.85;;
8584;SDS011;7180;52.742;11.420;2023-04-12T00:18:26;11.40;;;10.57;;
8584;SDS011;7180;52.742;11.420;2023-04-12T00:20:51;11.20;;;10.40;;
8584;SDS011;7180;52.742;11.420;2023-04-12T00:23:17;11.43;;;10.70;;
8584;SDS011;7180;52.742;11.420;2023-04-12T00:25:43;11.60;;;10.70;;
8584;SDS011;7180;52.742;11.420;2023-04-12T00:28:08;11.30;;;10.60;;
8584;SDS011;7180;52.742;11.420;2023-04-12T00:30:33;10.43;;;9.73;;
8584;SDS011;7180;52.742;11.420;2023-04-12T00:32:58;10.27;;;9.67;;
8584;SDS011;7180;52.742;11.420;2023-04-12T00:35:23;10.43;;;9.80;;
8584;SDS011;7180;52.742;11.420;2023-04-12T00:37:49;10.73;;;9.83;;
8584;SDS011;7180;52.742;11.420;2023-04-12T00:40:14;10.80;;;10.10;;
8584;SDS011;7180;52.742;11.420;2023-04-12T00:42:39;10.60;;;9.90;;
8584;SDS011;7180;52.742;11.420;2023-04-12T00:45:05;10.70;;;10.00;;
8584;SDS011;7180;52.742;11.420;2023-04-12T00:47:30;10.80;;;10.17;;
8584;SDS011;7180;52.742;11.420;2023-04-12T00:49:56;11.07;;;10.37;;
8584;SDS011;7180;52.742;11.420;2023-04-12T00:52:22;11.33;;;10.53;;
8584;SDS011;7180;52.742;11.420;2023-04-12T00:54:47;11.10;;;10.40;;
8584;SDS011;7180;52.742;11.420;2023-04-12T00:57:13;10.80;;;10.20;;
8584;SDS011;7180;52.742;11.420;2023-04-12T00:59:38;11.63;;;10.73;;
8584;SDS011;7180;52.742;11.420;2023-04-12T01:02:03;10.77;;;10.07;;
8584;SDS011;7180;52.742;11.420;2023-04-12T01:04:29;12.23;;;11.30;;
8584;SDS011;7180;52.742;11.420;2023-04-12T01:07:01;12.53;;;11.50;;
8584;SDS011;7180;52.742;11.420;2023-04-12T01:12:07;12.43;;;11.43;;
8584;SDS011;7180;52.742;11.420;2023-04-12T01:14:42;12.33;;;11.50;;
8584;SDS011;7180;52.742;11.420;2023-04-12T01:17:10;12.37;;;11.47;;
8584;SDS011;7180;52.742;11.420;2023-04-12T01:22:22;12.23;;;11.23;;
8584;SDS011;7180;52.742;11.420;2023-04-12T01:25:01;11.20;;;10.40;;
8584;SDS011;7180;52.742;11.420;2023-04-12T01:29:57;10.90;;;10.20;;
8584;SDS011;7180;52.742;11.420;2023-04-12T01:32:25;10.50;;;9.80;;
8584;SDS011;7180;52.742;11.420;2023-04-12T01:34:50;10.80;;;10.20;;
8584;SDS011;7180;52.742;11.420;2023-04-12T01:37:15;11.37;;;10.50;;
8584;SDS011;7180;52.742;11.420;2023-04-12T01:39:43;11.13;;;10.43;;
8584;SDS011;7180;52.742;11.420;2023-04-12T01:42:09;11.20;;;10.10;;
8584;SDS011;7180;52.742;11.420;2023-04-12T01:44:34;10.57;;;9.88;;
8584;SDS011;7180;52.742;11.420;2023-04-12T01:46:59;10.43;;;9.75;;
8584;SDS011;7180;52.742;11.420;2023-04-12T01:49:25;10.80;;;10.20;;
8584;SDS011;7180;52.742;11.420;2023-04-12T01:51:57;10.80;;;10.20;;
8584;SDS011;7180;52.742;11.420;2023-04-12T01:54:26;10.63;;;10.00;;
8584;SDS011;7180;52.742;11.420;2023-04-12T01:56:53;10.43;;;9.83;;
8584;SDS011;7180;52.742;11.420;2023-04-12T01:59:21;11.33;;;10.60;;
8584;SDS011;7180;52.742;11.420;2023-04-12T02:01:48;10.60;;;10.00;;
8584;SDS011;7180;52.742;11.420;2023-04-12T02:04:14;10.90;;;10.30;;
8584;SDS011;7180;52.742;11.420;2023-04-12T02:06:41;10.70;;;10.10;;
8584;SDS011;7180;52.742;11.420;2023-04-12T02:09:07;11.03;;;10.23;;
8584;SDS011;7180;52.742;11.420;2023-04-12T02:11:33;10.77;;;10.17;;
8584;SDS011;7180;52.742;11.420;2023-04-12T02:13:58;11.33;;;10.50;;
8584;SDS011;7180;52.742;11.420;2023-04-12T02:16:23;10.90;;;10.20;;
8584;SDS011;7180;52.742;11.420;2023-04-12T02:18:49;10.90;;;10.20;;
8584;SDS011;7180;52.742;11.420;2023-04-12T02:21:14;11.23;;;10.50;;
8584;SDS011;7180;52.742;11.420;2023-04-12T02:23:39;11.40;;;10.60;;
8584;SDS011;7180;52.742;11.420;2023-04-12T02:26:06;11.20;;;10.30;;
8584;SDS011;7180;52.742;11.420;2023-04-12T02:28:31;10.70;;;10.10;;
8584;SDS011;7180;52.742;11.420;2023-04-12T02:30:58;11.23;;;10.50;;
8584;SDS011;7180;52.742;11.420;2023-04-12T02:33:23;11.50;;;10.60;;
8584;SDS011;7180;52.742;11.420;2023-04-12T02:35:49;12.47;;;11.47;;
8584;SDS011;7180;52.742;11.420;2023-04-12T02:38:14;12.47;;;11.33;;
8584;SDS011;7180;52.742;11.420;2023-04-12T02:40:40;12.40;;;11.50;;
8584;SDS011;7180;52.742;11.420;2023-04-12T02:43:06;11.67;;;10.80;;
8584;SDS011;7180;52.742;11.420;2023-04-12T02:45:31;11.63;;;10.63;;
8584;SDS011;7180;52.742;11.420;2023-04-12T02:47:56;12.17;;;11.07;;
8584;SDS011;7180;52.742;11.420;2023-04-12T02:50:22;13.10;;;12.00;;
8584;SDS011;7180;52.742;11.420;2023-04-12T02:52:47;13.30;;;12.25;;
8584;SDS011;7180;52.742;11.420;2023-04-12T02:55:12;12.30;;;11.23;;
8584;SDS011;7180;52.742;11.420;2023-04-12T02:57:37;12.98;;;11.40;;
8584;SDS011;7180;52.742;11.420;2023-04-12T03:00:03;12.85;;;11.80;;
8584;SDS011;7180;52.742;11.420;2023-04-12T03:02:33;13.43;;;12.40;;
8584;SDS011;7180;52.742;11.420;2023-04-12T03:04:58;13.27;;;12.30;;
8584;SDS011;7180;52.742;11.420;2023-04-12T03:07:23;13.00;;;11.82;;
8584;SDS011;7180;52.742;11.420;2023-04-12T03:09:49;11.80;;;10.90;;
8584;SDS011;7180;52.742;11.420;2023-04-12T03:12:14;12.00;;;10.97;;
8584;SDS011;7180;52.742;11.420;2023-04-12T03:14:40;11.20;;;10.50;;
8584;SDS011;7180;52.742;11.420;2023-04-12T03:17:05;11.17;;;10.37;;
8584;SDS011;7180;52.742;11.420;2023-04-12T03:19:31;11.87;;;11.07;;
8584;SDS011;7180;52.742;11.420;2023-04-12T03:21:58;11.80;;;11.10;;
8584;SDS011;7180;52.742;11.420;2023-04-12T03:24:24;11.23;;;10.53;;
8584;SDS011;7180;52.742;11.420;2023-04-12T03:26:49;11.40;;;10.47;;
8584;SDS011;7180;52.742;11.420;2023-04-12T03:29:16;11.43;;;10.67;;
8584;SDS011;7180;52.742;11.420;2023-04-12T03:31:41;10.70;;;10.00;;
8584;SDS011;7180;52.742;11.420;2023-04-12T03:34:06;11.43;;;10.50;;
8584;SDS011;7180;52.742;11.420;2023-04-12T03:36:32;11.83;;;10.93;;
8584;SDS011;7180;52.742;11.420;2023-04-12T03:38:57;11.37;;;10.33;;
8584;SDS011;7180;52.742;11.420;2023-04-12T03:41:23;11.60;;;10.70;;
8584;SDS011;7180;52.742;11.420;2023-04-12T03:43:48;11.37;;;10.40;;
8584;SDS011;7180;52.742;11.420;2023-04-12T03:46:13;10.93;;;10.13;;
8584;SDS011;7180;52.742;11.420;2023-04-12T03:48:39;11.00;;;10.20;;
8584;SDS011;7180;52.742;11.420;2023-04-12T03:51:05;11.10;;;10.37;;
8584;SDS011;7180;52.742;11.420;2023-04-12T03:53:31;11.57;;;10.53;;
8584;SDS011;7180;52.742;11.420;2023-04-12T03:55:56;10.73;;;9.93;;
8584;SDS011;7180;52.742;11.420;2023-04-12T03:58:22;11.97;;;11.10;;
8584;SDS011;7180;52.742;11.420;2023-04-12T04:00:47;11.40;;;10.60;;
8584;SDS011;7180;52.742;11.420;2023-04-12T04:03:13;11.00;;;10.23;;
8584;SDS011;7180;52.742;11.420;2023-04-12T04:05:38;11.43;;;10.63;;
8584;SDS011;7180;52.742;11.420;2023-04-12T04:08:03;11.70;;;10.75;;
8584;SDS011;7180;52.742;11.420;2023-04-12T04:10:30;11.40;;;10.60;;
8584;SDS011;7180;52.742;11.420;2023-04-12T04:12:56;11.00;;;10.10;;
8584;SDS011;7180;52.742;11.420;2023-04-12T04:15:21;11.55;;;10.65;;
8584;SDS011;7180;52.742;11.420;2023-04-12T04:17:46;12.07;;;11.00;;
8584;SDS011;7180;52.742;11.420;2023-04-12T04:20:13;12.27;;;11.40;;
8584;SDS011;7180;52.742;11.420;2023-04-12T04:22:38;12.60;;;11.33;;
8584;SDS011;7180;52.742;11.420;2023-04-12T04:25:03;12.23;;;11.40;;
8584;SDS011;7180;52.742;11.420;2023-04-12T04:27:29;12.37;;;11.47;;
8584;SDS011;7180;52.742;11.420;2023-04-12T04:29:58;12.03;;;11.20;;
8584;SDS011;7180;52.742;11.420;2023-04-12T04:32:23;11.67;;;10.87;;
8584;SDS011;7180;52.742;11.420;2023-04-12T04:34:49;11.43;;;10.53;;
8584;SDS011;7180;52.742;11.420;2023-04-12T04:37:15;11.43;;;10.60;;
8584;SDS011;7180;52.742;11.420;2023-04-12T04:39:40;11.50;;;10.70;;
8584;SDS011;7180;52.742;11.420;2023-04-12T04:42:05;11.70;;;11.00;;
8584;SDS011;7180;52.742;11.420;2023-04-12T04:44:30;12.20;;;11.13;;
8584;SDS011;7180;52.742;11.420;2023-04-12T04:46:59;11.70;;;11.00;;
8584;SDS011;7180;52.742;11.420;2023-04-12T04:49:24;12.40;;;11.50;;
8584;SDS011;7180;52.742;11.420;2023-04-12T04:51:50;12.00;;;11.07;;
8584;SDS011;7180;52.742;11.420;2023-04-12T04:54:15;12.40;;;11.40;;
8584;SDS011;7180;52.742;11.420;2023-04-12T04:56:40;11.90;;;11.03;;
8584;SDS011;7180;52.742;11.420;2023-04-12T04:59:05;11.80;;;11.00;;
8584;SDS011;7180;52.742;11.420;2023-04-12T05:01:31;12.37;;;11.47;;
8584;SDS011;7180;52.742;11.420;2023-04-12T05:04:00;12.53;;;11.53;;
8584;SDS011;7180;52.742;11.420;2023-04-12T05:06:25;11.87;;;11.07;;
8584;SDS011;7180;52.742;11.420;2023-04-12T05:08:51;12.10;;;11.27;;
8584;SDS011;7180;52.742;11.420;2023-04-12T05:11:16;11.13;;;10.33;;
8584;SDS011;7180;52.742;11.420;2023-04-12T05:13:42;12.07;;;11.23;;
8584;SDS011;7180;52.742;11.420;2023-04-12T05:16:07;12.52;;;11.60;;
8584;SDS011;7180;52.742;11.420;2023-04-12T05:18:32;12.00;;;11.10;;
8584;SDS011;7180;52.742;11.420;2023-04-12T05:21:00;12.33;;;11.43;;
8584;SDS011;7180;52.742;11.420;2023-04-12T05:23:26;12.10;;;11.10;;
8584;SDS011;7180;52.742;11.420;2023-04-12T05:25:51;11.70;;;10.80;;
8584;SDS011;7180;52.742;11.420;2023-04-12T05:28:17;11.40;;;10.60;;
8584;SDS011;7180;52.742;11.420;2023-04-12T05:30:43;10.90;;;10.10;;
8584;SDS011;7180;52.742;11.420;2023-04-12T05:33:08;11.47;;;10.47;;
8584;SDS011;7180;52.742;11.420;2023-04-12T05:35:33;10.93;;;10.10;;
8584;SDS011;7180;52.742;11.420;2023-04-12T05:37:59;10.40;;;9.67;;
8584;SDS011;7180;52.742;11.420;2023-04-12T05:40:24;10.90;;;9.95;;
8584;SDS011;7180;52.742;11.420;2023-04-12T05:42:49;10.90;;;10.20;;
8584;SDS011;7180;52.742;11.420;2023-04-12T05:45:14;11.00;;;10.18;;
8584;SDS011;7180;52.742;11.420;2023-04-12T05:47:39;10.47;;;9.77;;
8584;SDS011;7180;52.742;11.420;2023-04-12T05:50:05;11.53;;;10.83;;
8584;SDS011;7180;52.742;11.420;2023-04-12T05:52:31;11.80;;;11.00;;
8584;SDS011;7180;52.742;11.420;2023-04-12T05:54:57;9.70;;;9.10;;
8584;SDS011;7180;52.742;11.420;2023-04-12T05:57:22;10.50;;;9.80;;
8584;SDS011;7180;52.742;11.420;2023-04-12T05:59:47;11.30;;;10.20;;
8584;SDS011;7180;52.742;11.420;2023-04-12T06:02:12;10.70;;;9.93;;
8584;SDS011;7180;52.742;11.420;2023-04-12T06:04:37;11.30;;;10.40;;
8584;SDS011;7180;52.742;11.420;2023-04-12T06:07:04;11.37;;;10.60;;
8584;SDS011;7180;52.742;11.420;2023-04-12T06:09:29;10.87;;;10.27;;
8584;SDS011;7180;52.742;11.420;2023-04-12T06:11:55;10.53;;;9.93;;
8584;SDS011;7180;52.742;11.420;2023-04-12T06:14:21;11.30;;;10.40;;
8584;SDS011;7180;52.742;11.420;2023-04-12T06:16:46;10.80;;;10.10;;
8584;SDS011;7180;52.742;11.420;2023-04-12T06:19:11;11.50;;;10.60;;
8584;SDS011;7180;52.742;11.420;2023-04-12T06:21:36;11.67;;;10.87;;
8584;SDS011;7180;52.742;11.420;2023-04-12T06:24:01;10.70;;;9.97;;
8584;SDS011;7180;52.742;11.420;2023-04-12T06:26:26;11.50;;;10.60;;
8584;SDS011;7180;52.742;11.420;2023-04-12T06:28:52;11.10;;;10.30;;
8584;SDS011;7180;52.742;11.420;2023-04-12T06:31:17;11.10;;;10.40;;
8584;SDS011;7180;52.742;11.420;2023-04-12T06:33:42;11.05;;;10.27;;
8584;SDS011;7180;52.742;11.420;2023-04-12T06:36:07;11.70;;;10.90;;
8584;SDS011;7180;52.742;11.420;2023-04-12T06:38:33;11.27;;;10.57;;
8584;SDS011;7180;52.742;11.420;2023-04-12T06:40:58;11.55;;;10.68;;
8584;SDS011;7180;52.742;11.420;2023-04-12T06:43:23;11.77;;;10.88;;
8584;SDS011;7180;52.742;11.420;2023-04-12T06:45:48;11.90;;;11.10;;
8584;SDS011;7180;52.742;11.420;2023-04-12T06:48:16;12.53;;;11.53;;
8584;SDS011;7180;52.742;11.420;2023-04-12T06:50:42;11.57;;;10.87;;
8584;SDS011;7180;52.742;11.420;2023-04-12T06:53:08;11.67;;;10.80;;
8584;SDS011;7180;52.742;11.420;2023-04-12T06:55:34;11.63;;;10.93;;
8584;SDS011;7180;52.742;11.420;2023-04-12T06:57:59;11.70;;;10.90;;
8584;SDS011;7180;52.742;11.420;2023-04-12T07:00:24;11.63;;;10.83;;
8584;SDS011;7180;52.742;11.420;2023-04-12T07:02:49;12.03;;;11.17;;
8584;SDS011;7180;52.742;11.420;2023-04-12T07:05:15;11.23;;;10.57;;
8584;SDS011;7180;52.742;11.420;2023-04-12T07:07:40;11.17;;;10.50;;
8584;SDS011;7180;52.742;11.420;2023-04-12T07:10:05;11.30;;;10.60;;
8584;SDS011;7180;52.742;11.420;2023-04-12T07:12:31;11.53;;;10.73;;
8584;SDS011;7180;52.742;11.420;2023-04-12T07:14:57;11.60;;;10.90;;
8584;SDS011;7180;52.742;11.420;2023-04-12T07:17:22;11.50;;;10.80;;
8584;SDS011;7180;52.742;11.420;2023-04-12T07:19:48;11.77;;;10.97;;
8584;SDS011;7180;52.742;11.420;2023-04-12T07:22:14;11.50;;;10.80;;
8584;SDS011;7180;52.742;11.420;2023-04-12T07:24:39;11.57;;;10.87;;
8584;SDS011;7180;52.742;11.420;2023-04-12T07:27:04;11.70;;;10.90;;
8584;SDS011;7180;52.742;11.420;2023-04-12T07:29:30;11.27;;;10.30;;
8584;SDS011;7180;52.742;11.420;2023-04-12T07:31:55;11.20;;;10.50;;
8584;SDS011;7180;52.742;11.420;2023-04-12T07:34:20;11.00;;;10.10;;
8584;SDS011;7180;52.742;11.420;2023-04-12T07:36:45;11.35;;;10.60;;
8584;SDS011;7180;52.742;11.420;2023-04-12T07:39:11;11.10;;;10.30;;
8584;SDS011;7180;52.742;11.420;2023-04-12T07:41:36;11.30;;;10.50;;
8584;SDS011;7180;52.742;11.420;2023-04-12T07:44:02;11.30;;;10.60;;
8584;SDS011;7180;52.742;11.420;2023-04-12T07:46:28;10.83;;;10.13;;
8584;SDS011;7180;52.742;11.420;2023-04-12T07:48:53;10.82;;;10.10;;
8584;SDS011;7180;52.742;11.420;2023-04-12T07:51:18;10.60;;;10.03;;
8584;SDS011;7180;52.742;11.420;2023-04-12T07:53:43;10.65;;;10.10;;
8584;SDS011;7180;52.742;11.420;2023-04-12T07:56:12;10.73;;;10.13;;
8584;SDS011;7180;52.742;11.420;2023-04-12T07:58:37;10.68;;;10.07;;
8584;SDS011;7180;52.742;11.420;2023-04-12T08:01:02;10.40;;;9.77;;
8584;SDS011;7180;52.742;11.420;2023-04-12T08:03:27;10.90;;;10.03;;
8584;SDS011;7180;52.742;11.420;2023-04-12T08:05:52;10.97;;;10.37;;
8584;SDS011;7180;52.742;11.420;2023-04-12T08:08:18;11.27;;;10.47;;
8584;SDS011;7180;52.742;11.420;2023-04-12T08:10:45;10.77;;;10.07;;
8584;SDS011;7180;52.742;11.420;2023-04-12T08:13:10;11.17;;;10.47;;
8584;SDS011;7180;52.742;11.420;2023-04-12T08:15:36;10.53;;;9.93;;
8584;SDS011;7180;52.742;11.420;2023-04-12T08:18:01;10.80;;;10.10;;
8584;SDS011;7180;52.742;11.420;2023-04-12T08:20:26;10.37;;;9.80;;
8584;SDS011;7180;52.742;11.420;2023-04-12T08:22:51;10.93;;;10.23;;
8584;SDS011;7180;52.742;11.420;2023-04-12T08:25:18;11.10;;;10.50;;
8584;SDS011;7180;52.742;11.420;2023-04-12T08:27:44;10.83;;;10.23;;
8584;SDS011;7180;52.742;11.420;2023-04-12T08:30:09;11.20;;;10.40;;
8584;SDS011;7180;52.742;11.420;2023-04-12T08:32:35;10.90;;;10.20;;
8584;SDS011;7180;52.742;11.420;2023-04-12T08:35:01;10.63;;;10.03;;
8584;SDS011;7180;52.742;11.420;2023-04-12T08:37:26;10.97;;;10.27;;
8584;SDS011;7180;52.742;11.420;2023-04-12T08:39:52;10.85;;;10.25;;
8584;SDS011;7180;52.742;11.420;2023-04-12T08:42:17;11.00;;;10.33;;
8584;SDS011;7180;52.742;11.420;2023-04-12T08:44:42;10.77;;;10.17;;
8584;SDS011;7180;52.742;11.420;2023-04-12T08:47:08;11.40;;;10.60;;
8584;SDS011;7180;52.742;11.420;2023-04-12T08:49:33;11.30;;;10.60;;
8584;SDS011;7180;52.742;11.420;2023-04-12T08:51:59;11.00;;;10.30;;
8584;SDS011;7180;52.742;11.420;2023-04-12T08:54:25;11.30;;;10.60;;
8584;SDS011;7180;52.742;11.420;2023-04-12T08:56:51;10.90;;;10.20;;
8584;SDS011;7180;52.742;11.420;2023-04-12T08:59:17;10.90;;;10.30;;
8584;SDS011;7180;52.742;11.420;2023-04-12T09:01:42;10.90;;;10.20;;
8584;SDS011;7180;52.742;11.420;2023-04-12T09:04:08;11.00;;;10.30;;
8584;SDS011;7180;52.742;11.420;2023-04-12T09:06:33;10.80;;;10.20;;
8584;SDS011;7180;52.742;11.420;2023-04-12T09:08:58;11.00;;;10.30;;
8584;SDS011;7180;52.742;11.420;2023-04-12T09:11:26;11.03;;;10.33;;
8584;SDS011;7180;52.742;11.420;2023-04-12T09:13:52;11.27;;;10.53;;
8584;SDS011;7180;52.742;11.420;2023-04-12T09:16:20;10.87;;;10.27;;
8584;SDS011;7180;52.742;11.420;2023-04-12T09:18:57;10.37;;;9.77;;
8584;SDS011;7180;52.742;11.420;2023-04-12T09:21:26;10.33;;;9.73;;
8584;SDS011;7180;52.742;11.420;2023-04-12T09:24:01;10.20;;;9.50;;
8584;SDS011;7180;52.742;11.420;2023-04-12T09:26:27;10.20;;;9.50;;
8584;SDS011;7180;52.742;11.420;2023-04-12T09:28:53;10.87;;;9.87;;
8584;SDS011;7180;52.742;11.420;2023-04-12T09:31:18;10.70;;;10.00;;
8584;SDS011;7180;52.742;11.420;2023-04-12T09:33:44;11.10;;;10.20;;
8584;SDS011;7180;52.742;11.420;2023-04-12T09:36:10;10.50;;;9.90;;
8584;SDS011;7180;52.742;11.420;2023-04-12T09:38:38;10.40;;;9.63;;
8584;SDS011;7180;52.742;11.420;2023-04-12T09:41:18;10.27;;;9.67;;
8584;SDS011;7180;52.742;11.420;2023-04-12T09:43:44;10.37;;;9.70;;
8584;SDS011;7180;52.742;11.420;2023-04-12T09:46:10;10.37;;;9.77;;
8584;SDS011;7180;52.742;11.420;2023-04-12T09:48:39;10.13;;;9.53;;
8584;SDS011;7180;52.742;11.420;2023-04-12T09:51:07;10.80;;;10.10;;
8584;SDS011;7180;52.742;11.420;2023-04-12T09:53:33;10.00;;;9.40;;
8584;SDS011;7180;52.742;11.420;2023-04-12T09:56:00;10.30;;;9.60;;
8584;SDS011;7180;52.742;11.420;2023-04-12T09:58:25;10.50;;;9.80;;
8584;SDS011;7180;52.742;11.420;2023-04-12T10:00:51;11.53;;;10.53;;
8584;SDS011;7180;52.742;11.420;2023-04-12T10:03:17;10.80;;;10.10;;
8584;SDS011;7180;52.742;11.420;2023-04-12T10:05:42;11.30;;;10.50;;
8584;SDS011;7180;52.742;11.420;2023-04-12T10:08:10;11.43;;;10.47;;
8584;SDS011;7180;52.742;11.420;2023-04-12T10:10:35;10.70;;;10.00;;
8584;SDS011;7180;52.742;11.420;2023-04-12T10:13:00;10.80;;;10.10;;
8584;SDS011;7180;52.742;11.420;2023-04-12T10:15:26;11.00;;;10.30;;
8584;SDS011;7180;52.742;11.420;2023-04-12T10:17:53;11.47;;;10.53;;
8584;SDS011;7180;52.742;11.420;2023-04-12T10:20:19;10.97;;;10.27;;
8584;SDS011;7180;52.742;11.420;2023-04-12T10:22:46;11.77;;;10.77;;
8584;SDS011;7180;52.742;11.420;2023-04-12T10:25:22;11.37;;;10.67;;
8584;SDS011;7180;52.742;11.420;2023-04-12T10:27:48;11.13;;;10.43;;
8584;SDS011;7180;52.742;11.420;2023-04-12T10:30:23;11.67;;;10.80;;
8584;SDS011;7180;52.742;11.420;2023-04-12T10:35:26;11.60;;;10.80;;
8584;SDS011;7180;52.742;11.420;2023-04-12T10:38:00;11.97;;;11.17;;
8584;SDS011;7180;52.742;11.420;2023-04-12T10:40:26;11.23;;;10.43;;
8584;SDS011;7180;52.742;11.420;2023-04-12T10:45:36;11.20;;;10.20;;
8584;SDS011;7180;52.742;11.420;2023-04-12T10:48:01;11.60;;;10.73;;
8584;SDS011;7180;52.742;11.420;2023-04-12T10:50:28;10.10;;;9.50;;
8584;SDS011;7180;52.742;11.420;2023-04-12T10:55:40;10.47;;;9.67;;
8584;SDS011;7180;52.742;11.420;2023-04-12T10:58:06;11.03;;;10.23;;
8584;SDS011;7180;52.742;11.420;2023-04-12T11:03:16;10.63;;;9.93;;
8584;SDS011;7180;52.742;11.420;2023-04-12T11:05:55;10.40;;;9.80;;
8584;SDS011;7180;52.742;11.420;2023-04-12T11:08:20;10.60;;;10.00;;
8584;SDS011;7180;52.742;11.420;2023-04-12T11:10:47;11.10;;;10.20;;
8584;SDS011;7180;52.742;11.420;2023-04-12T11:13:13;10.93;;;10.23;;
8584;SDS011;7180;52.742;11.420;2023-04-12T11:15:38;11.07;;;10.27;;
8584;SDS011;7180;52.742;11.420;2023-04-12T11:18:04;11.03;;;10.30;;
8584;SDS011;7180;52.742;11.420;2023-04-12T11:20:30;11.80;;;10.80;;
8584;SDS011;7180;52.742;11.420;2023-04-12T11:22:55;12.13;;;11.33;;
8584;SDS011;7180;52.742;11.420;2023-04-12T11:25:21;12.70;;;11.90;;
8584;SDS011;7180;52.742;11.420;2023-04-12T11:27:50;12.57;;;11.67;;
8584;SDS011;7180;52.742;11.420;2023-04-12T11:30:16;12.07;;;11.30;;
8584;SDS011;7180;52.742;11.420;2023-04-12T11:32:43;12.90;;;11.90;;
8584;SDS011;7180;52.742;11.420;2023-04-12T11:35:08;11.70;;;10.90;;
8584;SDS011;7180;52.742;11.420;2023-04-12T11:37:33;11.37;;;10.57;;
8584;SDS011;7180;52.742;11.420;2023-04-12T11:39:59;11.27;;;10.63;;
8584;SDS011;7180;52.742;11.420;2023-04-12T11:42:25;12.77;;;11.87;;
8584;SDS011;7180;52.742;11.420;2023-04-12T11:44:50;11.40;;;10.70;;
8584;SDS011;7180;52.742;11.420;2023-04-12T11:47:20;11.57;;;10.77;;
8584;SDS011;7180;52.742;11.420;2023-04-12T11:49:47;11.73;;;11.03;;
8584;SDS011;7180;52.742;11.420;2023-04-12T11:52:13;11.80;;;10.90;;
8584;SDS011;7180;52.742;11.420;2023-04-12T11:54:45;11.97;;;11.27;;
8584;SDS011;7180;52.742;11.420;2023-04-12T11:57:11;11.60;;;10.90;;
8584;SDS011;7180;52.742;11.420;2023-04-12T11:59:36;11.53;;;10.73;;
8584;SDS011;7180;52.742;11.420;2023-04-12T12:02:02;11.27;;;10.33;;
8584;SDS011;7180;52.742;11.420;2023-04-12T12:04:28;11.50;;;10.60;;
8584;SDS011;7180;52.742;11.420;2023-04-12T12:06:54;11.63;;;10.90;;
8584;SDS011;7180;52.742;11.420;2023-04-12T12:09:20;11.70;;;10.80;;
8584;SDS011;7180;52.742;11.420;2023-04-12T12:11:45;11.33;;;10.63;;
8584;SDS011;7180;52.742;11.420;2023-04-12T12:14:11;11.70;;;10.90;;
8584;SDS011;7180;52.742;11.420;2023-04-12T12:16:36;11.77;;;10.98;;
8584;SDS011;7180;52.742;11.420;2023-04-12T12:19:05;10.70;;;10.00;;
8584;SDS011;7180;52.742;11.420;2023-04-12T12:21:30;11.03;;;10.27;;
8584;SDS011;7180;52.742;11.420;2023-04-12T12:23:55;10.90;;;10.07;;
8584;SDS011;7180;52.742;11.420;2023-04-12T12:26:21;10.93;;;10.20;;
8584;SDS011;7180;52.742;11.420;2023-04-12T12:28:48;11.53;;;10.83;;
8584;SDS011;7180;52.742;11.420;2023-04-12T12:31:17;12.10;;;11.07;;
8584;SDS011;7180;52.742;11.420;2023-04-12T12:33:42;11.40;;;10.33;;
8584;SDS011;7180;52.742;11.420;2023-04-12T12:36:08;12.02;;;11.23;;
8584;SDS011;7180;52.742;11.420;2023-04-12T12:38:36;11.83;;;11.10;;
8584;SDS011;7180;52.742;11.420;2023-04-12T12:43:47;11.63;;;10.73;;
8584;SDS011;7180;52.742;11.420;2023-04-12T12:46:12;11.30;;;10.60;;
8584;SDS011;7180;52.742;11.420;2023-04-12T12:48:38;11.03;;;10.33;;
8584;SDS011;7180;52.742;11.420;2023-04-12T12:51:03;11.20;;;10.53;;
8584;SDS011;7180;52.742;11.420;2023-04-12T12:53:28;12.00;;;11.10;;
8584;SDS011;7180;52.742;11.420;2023-04-12T12:55:54;12.27;;;11.23;;
8584;SDS011;7180;52.742;11.420;2023-04-12T12:58:19;10.90;;;10.30;;
8584;SDS011;7180;52.742;11.420;2023-04-12T13:00:44;11.43;;;10.73;;
8584;SDS011;7180;52.742;11.420;2023-04-12T13:03:09;11.27;;;10.57;;
8584;SDS011;7180;52.742;11.420;2023-04-12T13:05:35;12.60;;;11.57;;
8584;SDS011;7180;52.742;11.420;2023-04-12T13:08:00;12.93;;;12.07;;
8584;SDS011;7180;52.742;11.420;2023-04-12T13:10:25;13.27;;;12.38;;
8584;SDS011;7180;52.742;11.420;2023-04-12T13:12:51;12.63;;;11.73;;
8584;SDS011;7180;52.742;11.420;2023-04-12T13:15:16;12.40;;;11.37;;
8584;SDS011;7180;52.742;11.420;2023-04-12T13:17:41;12.02;;;11.25;;
8584;SDS011;7180;52.742;11.420;2023-04-12T13:20:07;11.43;;;10.73;;
8584;SDS011;7180;52.742;11.420;2023-04-12T13:22:33;12.43;;;11.53;;
8584;SDS011;7180;52.742;11.420;2023-04-12T13:24:58;12.33;;;11.43;;
8584;SDS011;7180;52.742;11.420;2023-04-12T13:27:24;13.23;;;12.23;;
8584;SDS011;7180;52.742;11.420;2023-04-12T13:29:49;13.80;;;12.90;;
8584;SDS011;7180;52.742;11.420;2023-04-12T13:32:14;14.07;;;13.07;;
8584;SDS011;7180;52.742;11.420;2023-04-12T13:34:41;13.33;;;12.43;;
8584;SDS011;7180;52.742;11.420;2023-04-12T13:37:06;13.25;;;12.45;;
8584;SDS011;7180;52.742;11.420;2023-04-12T13:39:31;11.43;;;10.73;;
8584;SDS011;7180;52.742;11.420;2023-04-12T13:41:58;12.37;;;11.50;;
8584;SDS011;7180;52.742;11.420;2023-04-12T13:44:23;13.30;;;12.40;;
8584;SDS011;7180;52.742;11.420;2023-04-12T13:46:48;12.57;;;11.77;;
8584;SDS011;7180;52.742;11.420;2023-04-12T13:49:14;11.80;;;11.00;;
8584;SDS011;7180;52.742;11.420;2023-04-12T13:51:39;11.73;;;10.93;;
8584;SDS011;7180;52.742;11.420;2023-04-12T13:54:04;11.50;;;10.80;;
8584;SDS011;7180;52.742;11.420;2023-04-12T13:56:30;12.80;;;11.90;;
8584;SDS011;7180;52.742;11.420;2023-04-12T13:58:55;13.23;;;12.23;;
8584;SDS011;7180;52.742;11.420;2023-04-12T14:01:20;12.63;;;11.73;;
8584;SDS011;7180;52.742;11.420;2023-04-12T14:03:47;12.80;;;11.70;;
8584;SDS011;7180;52.742;11.420;2023-04-12T14:06:12;11.77;;;10.95;;
8584;SDS011;7180;52.742;11.420;2023-04-12T14:08:37;12.37;;;11.47;;
8584;SDS011;7180;52.742;11.420;2023-04-12T14:11:02;12.38;;;11.48;;
8584;SDS011;7180;52.742;11.420;2023-04-12T14:13:28;14.70;;;13.30;;
8584;SDS011;7180;52.742;11.420;2023-04-12T14:15:53;14.68;;;13.73;;
8584;SDS011;7180;52.742;11.420;2023-04-12T14:18:19;14.80;;;13.67;;
8584;SDS011;7180;52.742;11.420;2023-04-12T14:20:46;12.83;;;12.00;;
8584;SDS011;7180;52.742;11.420;2023-04-12T14:23:13;12.00;;;11.20;;
8584;SDS011;7180;52.742;11.420;2023-04-12T14:25:38;14.77;;;13.63;;
8584;SDS011;7180;52.742;11.420;2023-04-12T14:28:03;14.20;;;13.30;;
8584;SDS011;7180;52.742;11.420;2023-04-12T14:30:29;13.30;;;12.40;;
8584;SDS011;7180;52.742;11.420;2023-04-12T14:32:54;12.20;;;11.40;;
8584;SDS011;7180;52.742;11.420;2023-04-12T14:35:19;11.93;;;11.03;;
8584;SDS011;7180;52.742;11.420;2023-04-12T14:37:44;11.80;;;11.07;;
8584;SDS011;7180;52.742;11.420;2023-04-12T14:40:09;12.82;;;11.82;;
8584;SDS011;7180;52.742;11.420;2023-04-12T14:42:35;12.27;;;11.47;;
8584;SDS011;7180;52.742;11.420;2023-04-12T14:45:01;13.23;;;12.27;;
8584;SDS011;7180;52.742;11.420;2023-04-12T14:47:26;12.80;;;11.90;;
8584;SDS011;7180;52.742;11.420;2023-04-12T14:49:51;12.77;;;11.87;;